"WATCHING THE WEATHER TO PROTECT LIFE AND PROPERTY"


AKTUALMENTE NO TIN NINGUN VIGILANSIA ÒF ATVERTENSIA


Satelit (InfraRojo)


TNCA 250600Z 10014KT 9999 FEW018 29/25 Q1011 NOSIG
TNCB 250555Z AUTO 08013KT 9999 NCD 28/26 Q1012
TNCC 250600Z AUTO 11008KT 9999 NCD 28/26 Q1012
TNCM 250600Z VRB02KT 9999 FEW018 28/25 Q1015